sensor_id;sensor_type;location;lat;lon;timestamp;pressure;altitude;pressure_sealevel;temperature;humidity
37304;BME280;23188;51.188;16.374;2023-10-13T00:02:33;100138.77;;;17.18;100.00
37304;BME280;23188;51.188;16.374;2023-10-13T00:06:35;100133.46;;;17.22;100.00
37304;BME280;23188;51.188;16.374;2023-10-13T00:10:39;100132.66;;;17.18;100.00
37304;BME280;23188;51.188;16.374;2023-10-13T00:14:41;100131.02;;;17.18;100.00
37304;BME280;23188;51.188;16.374;2023-10-13T00:18:46;100129.21;;;17.17;100.00
37304;BME280;23188;51.188;16.374;2023-10-13T00:22:48;100131.88;;;17.15;100.00
37304;BME280;23188;51.188;16.374;2023-10-13T00:26:50;100134.89;;;17.19;100.00
37304;BME280;23188;51.188;16.374;2023-10-13T00:30:55;100132.76;;;17.22;100.00
37304;BME280;23188;51.188;16.374;2023-10-13T00:35:12;100135.28;;;17.26;100.00
37304;BME280;23188;51.188;16.374;2023-10-13T00:39:26;100137.86;;;17.27;100.00
37304;BME280;23188;51.188;16.374;2023-10-13T00:43:30;100139.31;;;17.21;100.00
37304;BME280;23188;51.188;16.374;2023-10-13T00:47:33;100142.80;;;17.21;100.00
37304;BME280;23188;51.188;16.374;2023-10-13T00:51:39;100140.95;;;17.20;100.00
37304;BME280;23188;51.188;16.374;2023-10-13T00:55:48;100134.48;;;17.18;100.00
37304;BME280;23188;51.188;16.374;2023-10-13T00:59:51;100135.96;;;17.16;100.00
37304;BME280;23188;51.188;16.374;2023-10-13T01:03:55;100131.48;;;17.09;100.00
37304;BME280;23188;51.188;16.374;2023-10-13T01:08:07;100132.23;;;17.06;100.00
37304;BME280;23188;51.188;16.374;2023-10-13T01:12:12;100131.46;;;17.04;100.00
37304;BME280;23188;51.188;16.374;2023-10-13T01:16:17;100138.76;;;17.02;100.00
37304;BME280;23188;51.188;16.374;2023-10-13T01:20:19;100144.27;;;17.02;100.00
37304;BME280;23188;51.188;16.374;2023-10-13T01:24:28;100143.77;;;17.10;100.00
37304;BME280;23188;51.188;16.374;2023-10-13T01:28:36;100142.70;;;17.13;100.00
37304;BME280;23188;51.188;16.374;2023-10-13T01:32:47;100145.81;;;17.16;100.00
37304;BME280;23188;51.188;16.374;2023-10-13T01:36:53;100147.42;;;17.17;100.00
37304;BME280;23188;51.188;16.374;2023-10-13T01:40:55;100147.05;;;17.17;100.00
37304;BME280;23188;51.188;16.374;2023-10-13T01:44:58;100144.63;;;17.09;100.00
37304;BME280;23188;51.188;16.374;2023-10-13T01:49:06;100143.53;;;17.02;100.00
37304;BME280;23188;51.188;16.374;2023-10-13T01:53:10;100157.29;;;17.04;100.00
37304;BME280;23188;51.188;16.374;2023-10-13T01:57:15;100156.29;;;17.04;100.00
37304;BME280;23188;51.188;16.374;2023-10-13T02:01:20;100148.96;;;16.98;100.00
37304;BME280;23188;51.188;16.374;2023-10-13T02:05:29;100148.93;;;16.89;100.00
37304;BME280;23188;51.188;16.374;2023-10-13T02:09:37;100153.91;;;16.85;100.00
37304;BME280;23188;51.188;16.374;2023-10-13T02:13:38;100153.83;;;16.86;100.00
37304;BME280;23188;51.188;16.374;2023-10-13T02:17:50;100152.59;;;16.86;100.00
37304;BME280;23188;51.188;16.374;2023-10-13T02:21:56;100159.55;;;16.90;100.00
37304;BME280;23188;51.188;16.374;2023-10-13T02:26:01;100160.15;;;16.91;100.00
37304;BME280;23188;51.188;16.374;2023-10-13T02:30:06;100164.98;;;16.88;100.00
37304;BME280;23188;51.188;16.374;2023-10-13T02:34:08;100164.56;;;16.86;100.00
37304;BME280;23188;51.188;16.374;2023-10-13T02:38:11;100161.33;;;16.83;100.00
37304;BME280;23188;51.188;16.374;2023-10-13T02:42:13;100158.82;;;16.77;100.00
37304;BME280;23188;51.188;16.374;2023-10-13T02:46:24;100154.50;;;16.72;100.00
37304;BME280;23188;51.188;16.374;2023-10-13T02:50:31;100155.67;;;16.73;100.00
37304;BME280;23188;51.188;16.374;2023-10-13T02:54:35;100152.92;;;16.72;100.00
37304;BME280;23188;51.188;16.374;2023-10-13T02:58:52;100156.05;;;16.69;100.00
37304;BME280;23188;51.188;16.374;2023-10-13T03:03:07;100165.11;;;16.63;100.00
37304;BME280;23188;51.188;16.374;2023-10-13T03:07:10;100160.48;;;16.60;100.00
37304;BME280;23188;51.188;16.374;2023-10-13T03:11:11;100161.08;;;16.56;100.00
37304;BME280;23188;51.188;16.374;2023-10-13T03:15:15;100161.65;;;16.49;100.00
37304;BME280;23188;51.188;16.374;2023-10-13T03:19:23;100159.97;;;16.43;100.00
37304;BME280;23188;51.188;16.374;2023-10-13T03:23:34;100160.17;;;16.38;100.00
37304;BME280;23188;51.188;16.374;2023-10-13T03:27:47;100158.86;;;16.32;100.00
37304;BME280;23188;51.188;16.374;2023-10-13T03:31:52;100158.02;;;16.25;100.00
37304;BME280;23188;51.188;16.374;2023-10-13T03:36:08;100156.02;;;16.18;100.00
37304;BME280;23188;51.188;16.374;2023-10-13T03:40:11;100160.02;;;16.18;100.00
37304;BME280;23188;51.188;16.374;2023-10-13T03:44:23;100160.02;;;16.18;100.00
37304;BME280;23188;51.188;16.374;2023-10-13T03:48:25;100158.02;;;16.21;100.00
37304;BME280;23188;51.188;16.374;2023-10-13T03:52:27;100157.52;;;16.29;100.00
37304;BME280;23188;51.188;16.374;2023-10-13T03:56:31;100159.11;;;16.34;100.00
37304;BME280;23188;51.188;16.374;2023-10-13T04:00:40;100157.39;;;16.40;100.00
37304;BME280;23188;51.188;16.374;2023-10-13T04:04:44;100155.98;;;16.45;100.00
37304;BME280;23188;51.188;16.374;2023-10-13T04:08:56;100156.02;;;16.50;100.00
37304;BME280;23188;51.188;16.374;2023-10-13T04:13:18;100150.27;;;16.47;100.00
37304;BME280;23188;51.188;16.374;2023-10-13T04:17:38;100149.94;;;16.47;100.00
37304;BME280;23188;51.188;16.374;2023-10-13T04:21:46;100145.48;;;16.46;100.00
37304;BME280;23188;51.188;16.374;2023-10-13T04:25:59;100140.98;;;16.41;100.00
37304;BME280;23188;51.188;16.374;2023-10-13T04:30:10;100134.34;;;16.30;100.00
37304;BME280;23188;51.188;16.374;2023-10-13T04:34:12;100123.23;;;16.12;100.00
37304;BME280;23188;51.188;16.374;2023-10-13T04:38:21;100118.84;;;16.06;100.00
37304;BME280;23188;51.188;16.374;2023-10-13T04:42:34;100114.98;;;15.87;100.00
37304;BME280;23188;51.188;16.374;2023-10-13T04:46:51;100110.33;;;15.58;100.00
37304;BME280;23188;51.188;16.374;2023-10-13T04:51:00;100110.63;;;15.36;100.00
37304;BME280;23188;51.188;16.374;2023-10-13T04:55:21;100112.14;;;15.14;100.00
37304;BME280;23188;51.188;16.374;2023-10-13T04:59:50;100115.55;;;15.00;100.00
37304;BME280;23188;51.188;16.374;2023-10-13T05:04:10;100118.45;;;14.98;100.00
37304;BME280;23188;51.188;16.374;2023-10-13T05:08:15;100114.92;;;14.94;100.00
37304;BME280;23188;51.188;16.374;2023-10-13T05:12:36;100116.52;;;14.82;100.00
37304;BME280;23188;51.188;16.374;2023-10-13T05:16:56;100113.87;;;14.69;100.00
37304;BME280;23188;51.188;16.374;2023-10-13T05:21:17;100120.08;;;14.62;100.00
37304;BME280;23188;51.188;16.374;2023-10-13T05:25:38;100115.67;;;14.60;100.00
37304;BME280;23188;51.188;16.374;2023-10-13T05:29:58;100113.35;;;14.64;100.00
37304;BME280;23188;51.188;16.374;2023-10-13T05:34:19;100117.23;;;14.74;100.00
37304;BME280;23188;51.188;16.374;2023-10-13T05:38:39;100120.44;;;14.82;100.00
37304;BME280;23188;51.188;16.374;2023-10-13T05:42:59;100120.23;;;14.91;100.00
37304;BME280;23188;51.188;16.374;2023-10-13T05:47:19;100128.77;;;15.02;100.00
37304;BME280;23188;51.188;16.374;2023-10-13T05:51:39;100131.16;;;15.20;100.00
37304;BME280;23188;51.188;16.374;2023-10-13T05:55:41;100124.90;;;15.45;100.00
37304;BME280;23188;51.188;16.374;2023-10-13T06:00:01;100128.73;;;15.63;100.00
37304;BME280;23188;51.188;16.374;2023-10-13T06:04:21;100123.05;;;15.83;100.00
37304;BME280;23188;51.188;16.374;2023-10-13T06:08:41;100125.45;;;15.99;100.00
37304;BME280;23188;51.188;16.374;2023-10-13T06:13:01;100122.81;;;16.09;100.00
37304;BME280;23188;51.188;16.374;2023-10-13T06:17:22;100122.73;;;16.22;100.00
37304;BME280;23188;51.188;16.374;2023-10-13T06:21:43;100126.19;;;16.31;100.00
37304;BME280;23188;51.188;16.374;2023-10-13T06:26:04;100134.97;;;16.49;100.00
37304;BME280;23188;51.188;16.374;2023-10-13T06:30:24;100143.02;;;16.71;100.00
37304;BME280;23188;51.188;16.374;2023-10-13T06:34:26;100144.00;;;16.88;100.00
37304;BME280;23188;51.188;16.374;2023-10-13T06:38:39;100146.02;;;17.15;100.00
37304;BME280;23188;51.188;16.374;2023-10-13T06:42:40;100144.64;;;17.52;100.00
37304;BME280;23188;51.188;16.374;2023-10-13T06:46:45;100139.45;;;17.80;100.00
37304;BME280;23188;51.188;16.374;2023-10-13T06:50:48;100145.80;;;17.92;100.00
37304;BME280;23188;51.188;16.374;2023-10-13T06:54:52;100148.86;;;18.10;100.00
37304;BME280;23188;51.188;16.374;2023-10-13T06:58:55;100135.30;;;18.15;100.00
37304;BME280;23188;51.188;16.374;2023-10-13T07:03:06;100139.59;;;18.24;100.00
37304;BME280;23188;51.188;16.374;2023-10-13T07:07:09;100145.85;;;18.29;100.00
37304;BME280;23188;51.188;16.374;2023-10-13T07:11:11;100145.08;;;18.42;100.00
37304;BME280;23188;51.188;16.374;2023-10-13T07:15:20;100138.48;;;18.57;100.00
37304;BME280;23188;51.188;16.374;2023-10-13T07:19:28;100147.39;;;18.70;100.00
37304;BME280;23188;51.188;16.374;2023-10-13T07:23:30;100150.65;;;18.90;100.00
37304;BME280;23188;51.188;16.374;2023-10-13T07:27:32;100153.89;;;19.14;100.00
37304;BME280;23188;51.188;16.374;2023-10-13T07:31:36;100150.07;;;19.45;100.00
37304;BME280;23188;51.188;16.374;2023-10-13T07:35:40;100139.66;;;19.77;100.00
37304;BME280;23188;51.188;16.374;2023-10-13T07:39:43;100136.63;;;20.00;100.00
37304;BME280;23188;51.188;16.374;2023-10-13T07:43:44;100128.85;;;20.25;100.00
37304;BME280;23188;51.188;16.374;2023-10-13T07:47:46;100125.02;;;20.42;100.00
37304;BME280;23188;51.188;16.374;2023-10-13T07:51:48;100127.57;;;20.50;100.00
37304;BME280;23188;51.188;16.374;2023-10-13T07:55:51;100123.91;;;20.59;100.00
37304;BME280;23188;51.188;16.374;2023-10-13T08:00:04;100115.98;;;20.78;100.00
37304;BME280;23188;51.188;16.374;2023-10-13T08:04:13;100117.63;;;20.99;100.00
37304;BME280;23188;51.188;16.374;2023-10-13T08:08:18;100114.72;;;21.05;99.97
37304;BME280;23188;51.188;16.374;2023-10-13T08:12:20;100123.33;;;21.05;99.75
37304;BME280;23188;51.188;16.374;2023-10-13T08:16:31;100125.61;;;21.11;99.82
37304;BME280;23188;51.188;16.374;2023-10-13T08:20:53;100128.27;;;21.11;99.06
37304;BME280;23188;51.188;16.374;2023-10-13T08:24:55;100125.05;;;21.01;98.41
37304;BME280;23188;51.188;16.374;2023-10-13T08:29:00;100122.74;;;21.04;99.15
37304;BME280;23188;51.188;16.374;2023-10-13T08:33:20;100120.44;;;21.09;99.72
37304;BME280;23188;51.188;16.374;2023-10-13T08:37:27;100121.56;;;21.10;99.39
37304;BME280;23188;51.188;16.374;2023-10-13T08:41:30;100119.15;;;20.95;99.53
37304;BME280;23188;51.188;16.374;2023-10-13T08:45:36;100115.77;;;21.04;100.00
37304;BME280;23188;51.188;16.374;2023-10-13T08:49:38;100109.52;;;21.14;100.00
37304;BME280;23188;51.188;16.374;2023-10-13T08:53:43;100107.20;;;21.22;100.00
37304;BME280;23188;51.188;16.374;2023-10-13T08:58:08;100100.80;;;21.24;99.58
37304;BME280;23188;51.188;16.374;2023-10-13T09:02:16;100093.55;;;21.32;100.00
37304;BME280;23188;51.188;16.374;2023-10-13T09:06:19;100088.41;;;21.39;100.00
37304;BME280;23188;51.188;16.374;2023-10-13T09:10:24;100092.05;;;21.42;100.00
37304;BME280;23188;51.188;16.374;2023-10-13T09:14:36;100098.25;;;21.62;100.00
37304;BME280;23188;51.188;16.374;2023-10-13T09:18:49;100096.52;;;21.81;100.00
37304;BME280;23188;51.188;16.374;2023-10-13T09:22:55;100088.18;;;21.96;99.06
37304;BME280;23188;51.188;16.374;2023-10-13T09:27:03;100084.40;;;22.08;98.78
37304;BME280;23188;51.188;16.374;2023-10-13T09:31:06;100078.16;;;22.13;96.65
37304;BME280;23188;51.188;16.374;2023-10-13T09:35:11;100080.38;;;22.25;98.88
37304;BME280;23188;51.188;16.374;2023-10-13T09:39:18;100080.79;;;22.35;97.72
37304;BME280;23188;51.188;16.374;2023-10-13T09:43:31;100076.15;;;22.37;97.04
37304;BME280;23188;51.188;16.374;2023-10-13T09:47:33;100074.74;;;22.43;97.63
37304;BME280;23188;51.188;16.374;2023-10-13T09:51:38;100064.17;;;22.56;96.82
37304;BME280;23188;51.188;16.374;2023-10-13T09:55:48;100056.35;;;22.70;97.21
37304;BME280;23188;51.188;16.374;2023-10-13T09:59:56;100049.85;;;22.83;96.67
37304;BME280;23188;51.188;16.374;2023-10-13T10:04:08;100037.60;;;22.94;94.99
37304;BME280;23188;51.188;16.374;2023-10-13T10:08:10;100035.30;;;23.17;96.43
37304;BME280;23188;51.188;16.374;2023-10-13T10:21:06;100015.52;;;23.27;90.23
37304;BME280;23188;51.188;16.374;2023-10-13T10:25:12;100005.61;;;23.11;90.73
37304;BME280;23188;51.188;16.374;2023-10-13T10:29:26;100002.11;;;22.97;92.00
37304;BME280;23188;51.188;16.374;2023-10-13T10:33:29;100003.16;;;22.99;94.49
37304;BME280;23188;51.188;16.374;2023-10-13T10:37:36;100001.15;;;23.02;95.25
37304;BME280;23188;51.188;16.374;2023-10-13T10:41:39;99995.70;;;23.03;94.82
37304;BME280;23188;51.188;16.374;2023-10-13T10:45:53;99988.37;;;23.01;93.74
37304;BME280;23188;51.188;16.374;2023-10-13T10:50:01;99988.34;;;23.08;93.86
37304;BME280;23188;51.188;16.374;2023-10-13T10:54:19;99984.41;;;23.08;92.34
37304;BME280;23188;51.188;16.374;2023-10-13T10:58:21;99970.64;;;23.10;92.82
37304;BME280;23188;51.188;16.374;2023-10-13T11:02:32;99966.13;;;23.20;95.85
37304;BME280;23188;51.188;16.374;2023-10-13T11:06:37;99958.35;;;23.27;95.50
37304;BME280;23188;51.188;16.374;2023-10-13T11:10:47;99953.81;;;23.31;93.88
37304;BME280;23188;51.188;16.374;2023-10-13T11:14:59;99950.48;;;23.32;92.32
37304;BME280;23188;51.188;16.374;2023-10-13T11:19:02;99948.27;;;23.30;92.87
37304;BME280;23188;51.188;16.374;2023-10-13T11:23:13;99941.86;;;23.33;95.59
37304;BME280;23188;51.188;16.374;2023-10-13T11:27:15;99932.66;;;23.38;94.52
37304;BME280;23188;51.188;16.374;2023-10-13T11:31:38;99928.56;;;23.54;92.89
37304;BME280;23188;51.188;16.374;2023-10-13T11:35:40;99921.75;;;23.61;92.68
37304;BME280;23188;51.188;16.374;2023-10-13T11:39:54;99921.52;;;23.63;90.80
37304;BME280;23188;51.188;16.374;2023-10-13T11:43:56;99921.82;;;23.57;90.68
37304;BME280;23188;51.188;16.374;2023-10-13T11:48:14;99916.55;;;23.57;92.82
37304;BME280;23188;51.188;16.374;2023-10-13T11:52:16;99916.02;;;23.60;94.40
37304;BME280;23188;51.188;16.374;2023-10-13T11:56:20;99911.77;;;23.66;95.53
37304;BME280;23188;51.188;16.374;2023-10-13T12:00:25;99907.55;;;23.69;95.69
37304;BME280;23188;51.188;16.374;2023-10-13T12:04:47;99901.45;;;23.66;92.09
37304;BME280;23188;51.188;16.374;2023-10-13T12:08:59;99899.33;;;23.55;92.89
37304;BME280;23188;51.188;16.374;2023-10-13T12:13:15;99893.21;;;23.40;93.29
37304;BME280;23188;51.188;16.374;2023-10-13T12:17:19;99887.56;;;23.31;94.67
37304;BME280;23188;51.188;16.374;2023-10-13T12:21:27;99877.88;;;23.21;95.72
37304;BME280;23188;51.188;16.374;2023-10-13T12:25:28;99868.98;;;23.12;96.43
37304;BME280;23188;51.188;16.374;2023-10-13T12:29:33;99874.82;;;23.10;96.87
37304;BME280;23188;51.188;16.374;2023-10-13T12:33:36;99872.53;;;23.10;97.28
37304;BME280;23188;51.188;16.374;2023-10-13T12:37:38;99869.35;;;23.12;96.32
37304;BME280;23188;51.188;16.374;2023-10-13T12:41:51;99867.18;;;23.05;96.34
37304;BME280;23188;51.188;16.374;2023-10-13T12:46:11;99861.01;;;22.91;96.73
37304;BME280;23188;51.188;16.374;2023-10-13T12:50:33;99855.81;;;22.73;97.10
37304;BME280;23188;51.188;16.374;2023-10-13T12:54:46;99855.27;;;22.57;98.87
37304;BME280;23188;51.188;16.374;2023-10-13T12:59:09;99850.38;;;22.52;99.89
37304;BME280;23188;51.188;16.374;2023-10-13T13:03:14;99845.83;;;22.51;100.00
37304;BME280;23188;51.188;16.374;2023-10-13T13:07:16;99839.96;;;22.48;100.00
37304;BME280;23188;51.188;16.374;2023-10-13T13:11:18;99841.56;;;22.40;100.00
37304;BME280;23188;51.188;16.374;2023-10-13T13:15:20;99836.02;;;22.41;100.00
37304;BME280;23188;51.188;16.374;2023-10-13T13:19:25;99828.43;;;22.41;100.00
37304;BME280;23188;51.188;16.374;2023-10-13T13:23:27;99821.67;;;22.40;100.00
37304;BME280;23188;51.188;16.374;2023-10-13T13:27:29;99824.70;;;22.50;100.00
37304;BME280;23188;51.188;16.374;2023-10-13T13:31:31;99821.04;;;22.57;100.00
37304;BME280;23188;51.188;16.374;2023-10-13T13:35:33;99812.88;;;22.69;100.00
37304;BME280;23188;51.188;16.374;2023-10-13T13:39:36;99804.58;;;22.75;100.00
37304;BME280;23188;51.188;16.374;2023-10-13T13:43:48;99797.60;;;22.80;100.00
37304;BME280;23188;51.188;16.374;2023-10-13T13:47:51;99797.30;;;22.78;100.00
37304;BME280;23188;51.188;16.374;2023-10-13T13:51:58;99795.91;;;22.74;100.00
37304;BME280;23188;51.188;16.374;2023-10-13T13:56:06;99790.43;;;22.73;100.00
37304;BME280;23188;51.188;16.374;2023-10-13T14:00:13;99780.85;;;22.69;100.00
37304;BME280;23188;51.188;16.374;2023-10-13T14:04:19;99776.95;;;22.66;100.00
37304;BME280;23188;51.188;16.374;2023-10-13T14:08:20;99776.15;;;22.61;100.00
37304;BME280;23188;51.188;16.374;2023-10-13T14:12:23;99772.35;;;22.55;100.00
37304;BME280;23188;51.188;16.374;2023-10-13T14:16:31;99769.13;;;22.49;100.00
37304;BME280;23188;51.188;16.374;2023-10-13T14:20:35;99757.86;;;22.44;100.00
37304;BME280;23188;51.188;16.374;2023-10-13T14:24:41;99753.47;;;22.39;100.00
37304;BME280;23188;51.188;16.374;2023-10-13T14:28:48;99749.37;;;22.37;100.00
37304;BME280;23188;51.188;16.374;2023-10-13T14:33:03;99745.62;;;22.30;100.00
37304;BME280;23188;51.188;16.374;2023-10-13T14:37:10;99736.23;;;22.23;100.00
37304;BME280;23188;51.188;16.374;2023-10-13T14:41:18;99729.85;;;22.22;100.00
37304;BME280;23188;51.188;16.374;2023-10-13T14:45:20;99727.48;;;22.22;99.77
37304;BME280;23188;51.188;16.374;2023-10-13T14:49:23;99725.48;;;22.14;99.80
37304;BME280;23188;51.188;16.374;2023-10-13T14:53:25;99716.61;;;22.11;100.00
37304;BME280;23188;51.188;16.374;2023-10-13T14:57:28;99721.61;;;22.11;100.00
37304;BME280;23188;51.188;16.374;2023-10-13T15:01:30;99711.94;;;22.15;100.00
37304;BME280;23188;51.188;16.374;2023-10-13T15:05:38;99709.39;;;22.14;100.00
37304;BME280;23188;51.188;16.374;2023-10-13T15:09:40;99704.79;;;22.12;100.00
37304;BME280;23188;51.188;16.374;2023-10-13T15:13:44;99696.45;;;22.12;100.00
37304;BME280;23188;51.188;16.374;2023-10-13T15:17:46;99699.73;;;22.13;100.00
37304;BME280;23188;51.188;16.374;2023-10-13T15:21:49;99698.94;;;22.20;100.00
37304;BME280;23188;51.188;16.374;2023-10-13T15:25:51;99690.98;;;22.24;100.00
37304;BME280;23188;51.188;16.374;2023-10-13T15:29:54;99686.60;;;22.30;100.00
37304;BME280;23188;51.188;16.374;2023-10-13T15:33:56;99687.23;;;22.32;100.00
37304;BME280;23188;51.188;16.374;2023-10-13T15:37:57;99686.84;;;22.25;100.00
37304;BME280;23188;51.188;16.374;2023-10-13T15:42:00;99687.59;;;22.15;100.00
37304;BME280;23188;51.188;16.374;2023-10-13T15:46:04;99680.88;;;22.02;100.00
37304;BME280;23188;51.188;16.374;2023-10-13T15:50:40;99679.98;;;21.88;100.00
37304;BME280;23188;51.188;16.374;2023-10-13T15:54:43;99675.52;;;21.63;100.00
37304;BME280;23188;51.188;16.374;2023-10-13T15:58:45;99667.88;;;21.45;100.00
37304;BME280;23188;51.188;16.374;2023-10-13T16:02:49;99666.44;;;21.23;100.00
37304;BME280;23188;51.188;16.374;2023-10-13T16:06:52;99672.99;;;21.07;100.00
37304;BME280;23188;51.188;16.374;2023-10-13T16:11:03;99674.66;;;20.95;100.00
37304;BME280;23188;51.188;16.374;2023-10-13T16:15:06;99667.12;;;20.87;100.00
37304;BME280;23188;51.188;16.374;2023-10-13T16:19:18;99661.16;;;20.81;100.00
37304;BME280;23188;51.188;16.374;2023-10-13T16:23:24;99656.46;;;20.85;100.00
37304;BME280;23188;51.188;16.374;2023-10-13T16:27:26;99648.89;;;20.82;100.00
37304;BME280;23188;51.188;16.374;2023-10-13T16:31:28;99640.72;;;20.75;100.00
37304;BME280;23188;51.188;16.374;2023-10-13T16:35:30;99641.59;;;20.68;100.00
37304;BME280;23188;51.188;16.374;2023-10-13T16:39:35;99638.82;;;20.67;100.00
37304;BME280;23188;51.188;16.374;2023-10-13T16:43:41;99630.77;;;20.65;100.00
37304;BME280;23188;51.188;16.374;2023-10-13T16:47:43;99626.18;;;20.67;100.00
37304;BME280;23188;51.188;16.374;2023-10-13T16:51:45;99623.23;;;20.71;100.00
37304;BME280;23188;51.188;16.374;2023-10-13T16:55:48;99623.98;;;20.72;100.00
37304;BME280;23188;51.188;16.374;2023-10-13T16:59:49;99621.60;;;20.74;100.00
37304;BME280;23188;51.188;16.374;2023-10-13T17:03:51;99620.14;;;20.76;100.00
37304;BME280;23188;51.188;16.374;2023-10-13T17:07:54;99618.04;;;20.80;100.00
37304;BME280;23188;51.188;16.374;2023-10-13T17:11:59;99616.55;;;20.80;100.00
37304;BME280;23188;51.188;16.374;2023-10-13T17:16:10;99607.36;;;20.81;100.00
37304;BME280;23188;51.188;16.374;2023-10-13T17:20:13;99609.92;;;20.80;100.00
37304;BME280;23188;51.188;16.374;2023-10-13T17:24:15;99608.34;;;20.78;100.00
37304;BME280;23188;51.188;16.374;2023-10-13T17:28:17;99599.41;;;20.79;100.00
37304;BME280;23188;51.188;16.374;2023-10-13T17:32:18;99601.40;;;20.79;100.00
37304;BME280;23188;51.188;16.374;2023-10-13T17:36:24;99606.88;;;20.74;100.00
37304;BME280;23188;51.188;16.374;2023-10-13T17:40:29;99605.51;;;20.73;100.00
37304;BME280;23188;51.188;16.374;2023-10-13T17:44:31;99598.78;;;20.69;100.00
37304;BME280;23188;51.188;16.374;2023-10-13T17:48:34;99594.11;;;20.70;100.00
37304;BME280;23188;51.188;16.374;2023-10-13T17:52:36;99587.27;;;20.76;100.00
37304;BME280;23188;51.188;16.374;2023-10-13T17:56:38;99586.80;;;20.79;100.00
37304;BME280;23188;51.188;16.374;2023-10-13T18:00:40;99581.83;;;20.81;100.00
37304;BME280;23188;51.188;16.374;2023-10-13T18:04:45;99586.06;;;20.87;100.00
37304;BME280;23188;51.188;16.374;2023-10-13T18:08:49;99581.97;;;20.92;100.00
37304;BME280;23188;51.188;16.374;2023-10-13T18:12:51;99579.02;;;20.92;100.00
37304;BME280;23188;51.188;16.374;2023-10-13T18:16:53;99579.84;;;20.98;100.00
37304;BME280;23188;51.188;16.374;2023-10-13T18:21:02;99569.17;;;21.02;100.00
37304;BME280;23188;51.188;16.374;2023-10-13T18:25:05;99561.20;;;21.05;99.92
37304;BME280;23188;51.188;16.374;2023-10-13T18:29:13;99558.55;;;21.10;99.24
37304;BME280;23188;51.188;16.374;2023-10-13T18:33:16;99559.26;;;21.21;98.35
37304;BME280;23188;51.188;16.374;2023-10-13T18:37:18;99553.08;;;21.28;97.95
37304;BME280;23188;51.188;16.374;2023-10-13T18:41:20;99550.73;;;21.32;97.57
37304;BME280;23188;51.188;16.374;2023-10-13T18:45:25;99545.58;;;21.34;97.39
37304;BME280;23188;51.188;16.374;2023-10-13T18:49:30;99541.31;;;21.35;96.95
37304;BME280;23188;51.188;16.374;2023-10-13T18:53:33;99533.33;;;21.35;96.63
37304;BME280;23188;51.188;16.374;2023-10-13T18:57:39;99534.20;;;21.36;96.34
37304;BME280;23188;51.188;16.374;2023-10-13T19:01:41;99530.92;;;21.34;95.60
37304;BME280;23188;51.188;16.374;2023-10-13T19:05:43;99523.97;;;21.35;95.78
37304;BME280;23188;51.188;16.374;2023-10-13T19:09:46;99524.23;;;21.32;95.57
37304;BME280;23188;51.188;16.374;2023-10-13T19:13:49;99517.98;;;21.32;95.66
37304;BME280;23188;51.188;16.374;2023-10-13T19:17:51;99511.63;;;21.31;95.15
37304;BME280;23188;51.188;16.374;2023-10-13T19:21:54;99512.80;;;21.29;94.65
37304;BME280;23188;51.188;16.374;2023-10-13T19:25:59;99515.75;;;21.28;94.18
37304;BME280;23188;51.188;16.374;2023-10-13T19:30:02;99511.08;;;21.25;93.75
37304;BME280;23188;51.188;16.374;2023-10-13T19:34:08;99506.27;;;21.24;93.60
37304;BME280;23188;51.188;16.374;2023-10-13T19:38:12;99503.99;;;21.17;92.70
37304;BME280;23188;51.188;16.374;2023-10-13T19:42:16;99504.40;;;21.18;92.33
37304;BME280;23188;51.188;16.374;2023-10-13T19:46:23;99498.80;;;21.16;91.71
37304;BME280;23188;51.188;16.374;2023-10-13T19:50:27;99494.84;;;21.18;91.36
37304;BME280;23188;51.188;16.374;2023-10-13T19:54:29;99490.23;;;21.15;90.86
37304;BME280;23188;51.188;16.374;2023-10-13T19:58:33;99489.20;;;21.13;90.78
37304;BME280;23188;51.188;16.374;2023-10-13T20:02:53;99485.92;;;21.09;90.42
37304;BME280;23188;51.188;16.374;2023-10-13T20:06:55;99487.19;;;21.08;90.15
37304;BME280;23188;51.188;16.374;2023-10-13T20:10:57;99482.92;;;21.05;89.61
37304;BME280;23188;51.188;16.374;2023-10-13T20:14:59;99475.19;;;21.01;89.62
37304;BME280;23188;51.188;16.374;2023-10-13T20:19:01;99472.52;;;20.96;89.61
37304;BME280;23188;51.188;16.374;2023-10-13T20:23:03;99470.35;;;20.94;89.83
37304;BME280;23188;51.188;16.374;2023-10-13T20:27:04;99466.98;;;20.87;89.77
37304;BME280;23188;51.188;16.374;2023-10-13T20:31:06;99461.24;;;20.80;89.80
37304;BME280;23188;51.188;16.374;2023-10-13T20:35:08;99456.05;;;20.76;90.21
37304;BME280;23188;51.188;16.374;2023-10-13T20:39:10;99456.02;;;20.71;90.14
37304;BME280;23188;51.188;16.374;2023-10-13T20:43:35;99455.86;;;20.68;90.11
37304;BME280;23188;51.188;16.374;2023-10-13T20:47:40;99451.80;;;20.62;90.31
37304;BME280;23188;51.188;16.374;2023-10-13T20:51:42;99444.06;;;20.53;90.58
37304;BME280;23188;51.188;16.374;2023-10-13T20:55:44;99447.91;;;20.47;90.61
37304;BME280;23188;51.188;16.374;2023-10-13T20:59:48;99447.45;;;20.44;90.73
37304;BME280;23188;51.188;16.374;2023-10-13T21:03:50;99436.78;;;20.39;90.75
37304;BME280;23188;51.188;16.374;2023-10-13T21:07:54;99430.57;;;20.32;90.48
37304;BME280;23188;51.188;16.374;2023-10-13T21:11:56;99429.09;;;20.28;90.49
37304;BME280;23188;51.188;16.374;2023-10-13T21:15:59;99424.46;;;20.25;90.98
37304;BME280;23188;51.188;16.374;2023-10-13T21:20:01;99421.15;;;20.21;90.88